sensor_id;sensor_type;location;lat;lon;timestamp;temperature;humidity
5041;DHT22;2539;52.568;13.364;2023-02-10T00:02:07;1.60;99.90
5041;DHT22;2539;52.568;13.364;2023-02-10T00:04:33;1.60;99.90
5041;DHT22;2539;52.568;13.364;2023-02-10T00:06:59;1.40;99.90
5041;DHT22;2539;52.568;13.364;2023-02-10T00:09:25;1.40;99.90
5041;DHT22;2539;52.568;13.364;2023-02-10T00:11:52;1.20;99.90
5041;DHT22;2539;52.568;13.364;2023-02-10T00:14:29;1.10;99.90
5041;DHT22;2539;52.568;13.364;2023-02-10T00:16:56;1.20;99.90
5041;DHT22;2539;52.568;13.364;2023-02-10T00:19:25;1.20;99.90
5041;DHT22;2539;52.568;13.364;2023-02-10T00:21:52;1.20;99.90
5041;DHT22;2539;52.568;13.364;2023-02-10T00:24:19;1.20;99.90
5041;DHT22;2539;52.568;13.364;2023-02-10T00:26:44;1.10;99.90
5041;DHT22;2539;52.568;13.364;2023-02-10T00:29:10;1.20;99.90
5041;DHT22;2539;52.568;13.364;2023-02-10T00:31:36;1.00;99.90
5041;DHT22;2539;52.568;13.364;2023-02-10T00:34:02;1.00;99.90
5041;DHT22;2539;52.568;13.364;2023-02-10T00:36:28;0.90;99.90
5041;DHT22;2539;52.568;13.364;2023-02-10T00:38:55;1.00;99.90
5041;DHT22;2539;52.568;13.364;2023-02-10T00:41:22;1.20;99.90
5041;DHT22;2539;52.568;13.364;2023-02-10T00:43:50;1.10;99.90
5041;DHT22;2539;52.568;13.364;2023-02-10T00:46:18;1.30;99.90
5041;DHT22;2539;52.568;13.364;2023-02-10T00:48:45;1.40;99.90
5041;DHT22;2539;52.568;13.364;2023-02-10T00:51:12;1.50;99.90
5041;DHT22;2539;52.568;13.364;2023-02-10T00:53:38;1.50;99.90
5041;DHT22;2539;52.568;13.364;2023-02-10T00:56:04;1.50;99.90
5041;DHT22;2539;52.568;13.364;2023-02-10T00:58:30;1.50;99.90
5041;DHT22;2539;52.568;13.364;2023-02-10T01:00:58;1.50;99.90
5041;DHT22;2539;52.568;13.364;2023-02-10T01:03:32;1.60;99.90
5041;DHT22;2539;52.568;13.364;2023-02-10T01:06:00;1.50;99.90
5041;DHT22;2539;52.568;13.364;2023-02-10T01:08:31;1.50;99.90
5041;DHT22;2539;52.568;13.364;2023-02-10T01:11:06;1.40;99.90
5041;DHT22;2539;52.568;13.364;2023-02-10T01:13:33;1.20;99.90
5041;DHT22;2539;52.568;13.364;2023-02-10T01:16:00;1.00;99.90
5041;DHT22;2539;52.568;13.364;2023-02-10T01:18:26;1.00;99.90
5041;DHT22;2539;52.568;13.364;2023-02-10T01:20:53;0.90;99.90
5041;DHT22;2539;52.568;13.364;2023-02-10T01:23:19;0.70;99.90
5041;DHT22;2539;52.568;13.364;2023-02-10T01:25:45;0.70;99.90
5041;DHT22;2539;52.568;13.364;2023-02-10T01:28:11;0.50;99.90
5041;DHT22;2539;52.568;13.364;2023-02-10T01:30:38;0.50;99.90
5041;DHT22;2539;52.568;13.364;2023-02-10T01:33:04;0.60;99.90
5041;DHT22;2539;52.568;13.364;2023-02-10T01:35:31;0.50;99.90
5041;DHT22;2539;52.568;13.364;2023-02-10T01:37:57;0.50;99.90
5041;DHT22;2539;52.568;13.364;2023-02-10T01:40:25;0.40;99.90
5041;DHT22;2539;52.568;13.364;2023-02-10T01:42:52;0.30;99.90
5041;DHT22;2539;52.568;13.364;2023-02-10T01:45:33;0.30;99.90
5041;DHT22;2539;52.568;13.364;2023-02-10T01:48:00;0.20;99.90
5041;DHT22;2539;52.568;13.364;2023-02-10T01:50:31;0.10;99.90
5041;DHT22;2539;52.568;13.364;2023-02-10T01:53:01;0.10;99.90
5041;DHT22;2539;52.568;13.364;2023-02-10T01:55:30;0.00;99.90
5041;DHT22;2539;52.568;13.364;2023-02-10T01:58:01;0.10;99.90
5041;DHT22;2539;52.568;13.364;2023-02-10T02:00:29;0.10;99.90
5041;DHT22;2539;52.568;13.364;2023-02-10T02:02:55;0.00;99.90
5041;DHT22;2539;52.568;13.364;2023-02-10T02:05:30;0.10;99.90
5041;DHT22;2539;52.568;13.364;2023-02-10T02:07:59;0.10;99.90
5041;DHT22;2539;52.568;13.364;2023-02-10T02:10:36;0.00;99.90
5041;DHT22;2539;52.568;13.364;2023-02-10T02:13:16;0.00;99.90
5041;DHT22;2539;52.568;13.364;2023-02-10T02:15:51;0.00;99.90
5041;DHT22;2539;52.568;13.364;2023-02-10T02:21:16;0.00;99.90
5041;DHT22;2539;52.568;13.364;2023-02-10T02:24:07;0.10;99.90
5041;DHT22;2539;52.568;13.364;2023-02-10T02:26:50;0.10;99.90
5041;DHT22;2539;52.568;13.364;2023-02-10T02:32:21;0.20;99.90
5041;DHT22;2539;52.568;13.364;2023-02-10T02:35:01;0.10;99.90
5041;DHT22;2539;52.568;13.364;2023-02-10T02:37:31;0.10;99.90
5041;DHT22;2539;52.568;13.364;2023-02-10T02:39:59;0.20;99.90
5041;DHT22;2539;52.568;13.364;2023-02-10T02:42:28;0.40;99.90
5041;DHT22;2539;52.568;13.364;2023-02-10T02:50:33;0.60;99.90
5041;DHT22;2539;52.568;13.364;2023-02-10T03:01:05;0.70;99.90
5041;DHT22;2539;52.568;13.364;2023-02-10T03:03:34;0.60;99.90
5041;DHT22;2539;52.568;13.364;2023-02-10T03:06:02;0.60;99.90
5041;DHT22;2539;52.568;13.364;2023-02-10T03:08:30;0.50;99.90
5041;DHT22;2539;52.568;13.364;2023-02-10T03:10:57;0.50;99.90
5041;DHT22;2539;52.568;13.364;2023-02-10T03:13:24;0.50;99.90
5041;DHT22;2539;52.568;13.364;2023-02-10T03:15:50;0.60;99.90
5041;DHT22;2539;52.568;13.364;2023-02-10T03:18:16;0.70;99.90
5041;DHT22;2539;52.568;13.364;2023-02-10T03:20:42;0.70;99.90
5041;DHT22;2539;52.568;13.364;2023-02-10T03:23:09;0.80;99.90
5041;DHT22;2539;52.568;13.364;2023-02-10T03:25:36;0.90;99.90
5041;DHT22;2539;52.568;13.364;2023-02-10T03:28:02;1.00;99.90
5041;DHT22;2539;52.568;13.364;2023-02-10T03:30:28;1.10;99.90
5041;DHT22;2539;52.568;13.364;2023-02-10T03:32:55;1.10;99.90
5041;DHT22;2539;52.568;13.364;2023-02-10T03:35:21;0.00;99.90
5041;DHT22;2539;52.568;13.364;2023-02-10T03:37:47;1.20;99.90
5041;DHT22;2539;52.568;13.364;2023-02-10T03:40:13;1.20;99.90
5041;DHT22;2539;52.568;13.364;2023-02-10T03:42:40;1.20;99.90
5041;DHT22;2539;52.568;13.364;2023-02-10T03:45:07;1.20;99.90
5041;DHT22;2539;52.568;13.364;2023-02-10T03:47:33;1.30;99.90
5041;DHT22;2539;52.568;13.364;2023-02-10T03:49:59;1.30;99.90
5041;DHT22;2539;52.568;13.364;2023-02-10T03:52:26;1.30;99.90
5041;DHT22;2539;52.568;13.364;2023-02-10T03:54:52;1.40;99.90
5041;DHT22;2539;52.568;13.364;2023-02-10T03:57:18;1.40;99.90
5041;DHT22;2539;52.568;13.364;2023-02-10T03:59:44;1.40;99.90
5041;DHT22;2539;52.568;13.364;2023-02-10T04:02:11;1.40;99.90
5041;DHT22;2539;52.568;13.364;2023-02-10T04:04:37;1.50;99.90
5041;DHT22;2539;52.568;13.364;2023-02-10T04:07:03;1.50;99.90
5041;DHT22;2539;52.568;13.364;2023-02-10T04:09:30;1.40;99.90
5041;DHT22;2539;52.568;13.364;2023-02-10T04:11:56;1.50;99.90
5041;DHT22;2539;52.568;13.364;2023-02-10T04:14:22;1.50;99.90
5041;DHT22;2539;52.568;13.364;2023-02-10T04:16:49;1.50;99.90
5041;DHT22;2539;52.568;13.364;2023-02-10T04:19:16;1.50;99.90
5041;DHT22;2539;52.568;13.364;2023-02-10T04:21:42;1.70;99.90
5041;DHT22;2539;52.568;13.364;2023-02-10T04:24:08;1.50;99.90
5041;DHT22;2539;52.568;13.364;2023-02-10T04:26:35;1.50;99.90
5041;DHT22;2539;52.568;13.364;2023-02-10T04:29:01;1.60;99.90
5041;DHT22;2539;52.568;13.364;2023-02-10T04:31:27;1.60;99.90
5041;DHT22;2539;52.568;13.364;2023-02-10T04:33:54;1.60;99.90
5041;DHT22;2539;52.568;13.364;2023-02-10T04:36:22;1.60;99.90
5041;DHT22;2539;52.568;13.364;2023-02-10T04:38:48;1.60;99.90
5041;DHT22;2539;52.568;13.364;2023-02-10T04:41:15;1.50;99.90
5041;DHT22;2539;52.568;13.364;2023-02-10T04:43:41;1.60;99.90
5041;DHT22;2539;52.568;13.364;2023-02-10T04:46:08;1.50;99.90
5041;DHT22;2539;52.568;13.364;2023-02-10T04:48:34;1.60;99.90
5041;DHT22;2539;52.568;13.364;2023-02-10T04:51:06;1.60;99.90
5041;DHT22;2539;52.568;13.364;2023-02-10T04:53:32;1.70;99.90
5041;DHT22;2539;52.568;13.364;2023-02-10T04:55:58;2.70;99.90
5041;DHT22;2539;52.568;13.364;2023-02-10T04:58:25;1.70;99.90
5041;DHT22;2539;52.568;13.364;2023-02-10T05:00:54;1.70;99.90
5041;DHT22;2539;52.568;13.364;2023-02-10T05:03:20;1.70;99.90
5041;DHT22;2539;52.568;13.364;2023-02-10T05:05:47;1.70;99.90
5041;DHT22;2539;52.568;13.364;2023-02-10T05:08:13;1.70;99.90
5041;DHT22;2539;52.568;13.364;2023-02-10T05:10:40;1.80;99.90
5041;DHT22;2539;52.568;13.364;2023-02-10T05:13:06;1.60;99.90
5041;DHT22;2539;52.568;13.364;2023-02-10T05:15:32;1.60;99.90
5041;DHT22;2539;52.568;13.364;2023-02-10T05:17:59;1.60;99.90
5041;DHT22;2539;52.568;13.364;2023-02-10T05:20:25;1.80;99.90
5041;DHT22;2539;52.568;13.364;2023-02-10T05:22:51;1.60;99.90
5041;DHT22;2539;52.568;13.364;2023-02-10T05:25:17;1.70;99.90
5041;DHT22;2539;52.568;13.364;2023-02-10T05:27:44;1.70;99.90
5041;DHT22;2539;52.568;13.364;2023-02-10T05:30:10;1.60;99.90
5041;DHT22;2539;52.568;13.364;2023-02-10T05:32:40;1.50;99.90
5041;DHT22;2539;52.568;13.364;2023-02-10T05:35:06;1.40;99.90
5041;DHT22;2539;52.568;13.364;2023-02-10T05:37:33;1.30;99.90
5041;DHT22;2539;52.568;13.364;2023-02-10T05:40:00;1.30;99.90
5041;DHT22;2539;52.568;13.364;2023-02-10T05:42:26;1.20;99.90
5041;DHT22;2539;52.568;13.364;2023-02-10T05:44:52;1.10;99.90
5041;DHT22;2539;52.568;13.364;2023-02-10T05:47:18;1.10;99.90
5041;DHT22;2539;52.568;13.364;2023-02-10T05:49:43;1.00;99.90
5041;DHT22;2539;52.568;13.364;2023-02-10T05:52:09;0.90;99.90
5041;DHT22;2539;52.568;13.364;2023-02-10T05:54:35;0.80;99.90
5041;DHT22;2539;52.568;13.364;2023-02-10T05:57:02;0.90;99.90
5041;DHT22;2539;52.568;13.364;2023-02-10T05:59:29;0.80;99.90
5041;DHT22;2539;52.568;13.364;2023-02-10T06:01:55;0.70;99.90
5041;DHT22;2539;52.568;13.364;2023-02-10T06:04:22;0.70;99.90
5041;DHT22;2539;52.568;13.364;2023-02-10T06:06:48;0.70;99.90
5041;DHT22;2539;52.568;13.364;2023-02-10T06:09:15;0.60;99.90
5041;DHT22;2539;52.568;13.364;2023-02-10T06:11:41;0.60;99.90
5041;DHT22;2539;52.568;13.364;2023-02-10T06:14:08;0.60;99.90
5041;DHT22;2539;52.568;13.364;2023-02-10T06:16:34;0.60;99.90
5041;DHT22;2539;52.568;13.364;2023-02-10T06:19:01;0.60;99.90
5041;DHT22;2539;52.568;13.364;2023-02-10T06:21:27;0.70;99.90
5041;DHT22;2539;52.568;13.364;2023-02-10T06:23:53;0.70;99.90
5041;DHT22;2539;52.568;13.364;2023-02-10T06:26:20;0.70;99.90
5041;DHT22;2539;52.568;13.364;2023-02-10T06:28:47;0.80;99.90
5041;DHT22;2539;52.568;13.364;2023-02-10T06:31:14;0.80;99.90
5041;DHT22;2539;52.568;13.364;2023-02-10T06:33:39;0.80;99.90
5041;DHT22;2539;52.568;13.364;2023-02-10T06:36:05;0.80;99.90
5041;DHT22;2539;52.568;13.364;2023-02-10T06:38:33;0.80;99.90
5041;DHT22;2539;52.568;13.364;2023-02-10T06:40:59;0.80;99.90
5041;DHT22;2539;52.568;13.364;2023-02-10T06:43:25;0.80;99.90
5041;DHT22;2539;52.568;13.364;2023-02-10T06:45:52;0.90;99.90
5041;DHT22;2539;52.568;13.364;2023-02-10T06:48:18;0.90;99.90
5041;DHT22;2539;52.568;13.364;2023-02-10T06:50:44;0.90;99.90
5041;DHT22;2539;52.568;13.364;2023-02-10T06:53:11;1.00;99.90
5041;DHT22;2539;52.568;13.364;2023-02-10T06:55:37;1.00;99.90
5041;DHT22;2539;52.568;13.364;2023-02-10T06:58:04;1.00;99.90
5041;DHT22;2539;52.568;13.364;2023-02-10T07:00:30;1.10;99.90
5041;DHT22;2539;52.568;13.364;2023-02-10T07:02:58;1.10;99.90
5041;DHT22;2539;52.568;13.364;2023-02-10T07:05:25;1.20;99.90
5041;DHT22;2539;52.568;13.364;2023-02-10T07:07:51;1.20;99.90
5041;DHT22;2539;52.568;13.364;2023-02-10T07:10:20;1.20;99.90
5041;DHT22;2539;52.568;13.364;2023-02-10T07:12:46;1.30;99.90
5041;DHT22;2539;52.568;13.364;2023-02-10T07:15:13;1.30;99.90
5041;DHT22;2539;52.568;13.364;2023-02-10T07:17:40;1.30;99.90
5041;DHT22;2539;52.568;13.364;2023-02-10T07:20:07;1.40;99.90
5041;DHT22;2539;52.568;13.364;2023-02-10T07:22:34;1.50;99.90
5041;DHT22;2539;52.568;13.364;2023-02-10T07:25:01;1.50;99.90
5041;DHT22;2539;52.568;13.364;2023-02-10T07:27:27;1.50;99.90
5041;DHT22;2539;52.568;13.364;2023-02-10T07:29:54;1.70;99.90
5041;DHT22;2539;52.568;13.364;2023-02-10T07:32:20;1.60;99.90
5041;DHT22;2539;52.568;13.364;2023-02-10T07:34:46;1.70;99.90
5041;DHT22;2539;52.568;13.364;2023-02-10T07:37:15;1.80;99.90
5041;DHT22;2539;52.568;13.364;2023-02-10T07:39:42;1.90;99.90
5041;DHT22;2539;52.568;13.364;2023-02-10T07:42:08;1.90;99.90
5041;DHT22;2539;52.568;13.364;2023-02-10T07:44:35;1.90;99.90
5041;DHT22;2539;52.568;13.364;2023-02-10T07:47:01;2.00;99.90
5041;DHT22;2539;52.568;13.364;2023-02-10T07:49:28;2.00;99.90
5041;DHT22;2539;52.568;13.364;2023-02-10T07:51:55;2.00;99.90
5041;DHT22;2539;52.568;13.364;2023-02-10T07:54:22;2.00;99.90
5041;DHT22;2539;52.568;13.364;2023-02-10T07:56:48;2.00;99.90
5041;DHT22;2539;52.568;13.364;2023-02-10T07:59:14;2.10;99.90
5041;DHT22;2539;52.568;13.364;2023-02-10T08:01:41;2.10;99.90
5041;DHT22;2539;52.568;13.364;2023-02-10T08:04:09;2.20;99.90
5041;DHT22;2539;52.568;13.364;2023-02-10T08:06:36;2.30;99.90
5041;DHT22;2539;52.568;13.364;2023-02-10T08:09:02;2.40;99.90
5041;DHT22;2539;52.568;13.364;2023-02-10T08:11:29;2.40;99.90
5041;DHT22;2539;52.568;13.364;2023-02-10T08:13:55;2.50;99.90
5041;DHT22;2539;52.568;13.364;2023-02-10T08:16:22;2.70;99.90
5041;DHT22;2539;52.568;13.364;2023-02-10T08:18:48;2.70;99.90
5041;DHT22;2539;52.568;13.364;2023-02-10T08:21:14;2.70;99.90
5041;DHT22;2539;52.568;13.364;2023-02-10T08:23:41;2.80;99.90
5041;DHT22;2539;52.568;13.364;2023-02-10T08:26:11;2.80;99.90
5041;DHT22;2539;52.568;13.364;2023-02-10T08:28:39;2.80;99.90
5041;DHT22;2539;52.568;13.364;2023-02-10T08:31:07;2.90;99.90
5041;DHT22;2539;52.568;13.364;2023-02-10T08:33:35;2.90;99.90
5041;DHT22;2539;52.568;13.364;2023-02-10T08:36:06;2.90;99.90
5041;DHT22;2539;52.568;13.364;2023-02-10T08:38:33;2.80;99.90
5041;DHT22;2539;52.568;13.364;2023-02-10T08:40:59;2.80;99.90
5041;DHT22;2539;52.568;13.364;2023-02-10T08:43:27;2.90;99.90
5041;DHT22;2539;52.568;13.364;2023-02-10T08:45:58;2.90;99.90
5041;DHT22;2539;52.568;13.364;2023-02-10T08:48:25;2.90;99.90
5041;DHT22;2539;52.568;13.364;2023-02-10T08:50:51;3.10;99.90
5041;DHT22;2539;52.568;13.364;2023-02-10T08:53:16;3.20;99.90
5041;DHT22;2539;52.568;13.364;2023-02-10T08:55:42;3.30;99.90
5041;DHT22;2539;52.568;13.364;2023-02-10T08:58:08;3.60;99.90
5041;DHT22;2539;52.568;13.364;2023-02-10T09:00:35;3.40;99.90
5041;DHT22;2539;52.568;13.364;2023-02-10T09:03:00;3.60;99.90
5041;DHT22;2539;52.568;13.364;2023-02-10T09:05:26;3.60;99.90
5041;DHT22;2539;52.568;13.364;2023-02-10T09:07:52;3.60;99.90
5041;DHT22;2539;52.568;13.364;2023-02-10T09:10:18;3.70;99.90
5041;DHT22;2539;52.568;13.364;2023-02-10T09:12:45;3.60;99.90
5041;DHT22;2539;52.568;13.364;2023-02-10T09:15:11;3.70;99.90
5041;DHT22;2539;52.568;13.364;2023-02-10T09:17:38;0.30;99.90
5041;DHT22;2539;52.568;13.364;2023-02-10T09:20:05;3.60;99.90
5041;DHT22;2539;52.568;13.364;2023-02-10T09:22:31;3.60;99.90
5041;DHT22;2539;52.568;13.364;2023-02-10T09:24:57;3.70;99.90
5041;DHT22;2539;52.568;13.364;2023-02-10T09:27:25;3.70;99.90
5041;DHT22;2539;52.568;13.364;2023-02-10T09:29:52;3.70;99.90
5041;DHT22;2539;52.568;13.364;2023-02-10T09:32:18;3.90;99.90
5041;DHT22;2539;52.568;13.364;2023-02-10T09:34:45;4.10;99.90
5041;DHT22;2539;52.568;13.364;2023-02-10T09:37:12;4.00;99.90
5041;DHT22;2539;52.568;13.364;2023-02-10T09:39:38;3.90;99.90
5041;DHT22;2539;52.568;13.364;2023-02-10T09:44:59;4.10;99.90
5041;DHT22;2539;52.568;13.364;2023-02-10T09:47:37;4.10;99.90
5041;DHT22;2539;52.568;13.364;2023-02-10T09:50:49;4.20;99.90
5041;DHT22;2539;52.568;13.364;2023-02-10T09:53:08;4.20;99.90
5041;DHT22;2539;52.568;13.364;2023-02-10T09:58:26;4.10;99.90
5041;DHT22;2539;52.568;13.364;2023-02-10T10:01:01;4.20;99.90
5041;DHT22;2539;52.568;13.364;2023-02-10T10:06:43;4.30;99.90
5041;DHT22;2539;52.568;13.364;2023-02-10T10:17:10;4.50;99.90
5041;DHT22;2539;52.568;13.364;2023-02-10T10:22:56;5.00;99.90
5041;DHT22;2539;52.568;13.364;2023-02-10T10:25:48;5.10;99.90
5041;DHT22;2539;52.568;13.364;2023-02-10T10:31:19;5.10;99.90
5041;DHT22;2539;52.568;13.364;2023-02-10T10:33:56;4.90;99.90
5041;DHT22;2539;52.568;13.364;2023-02-10T10:36:36;4.80;99.90
5041;DHT22;2539;52.568;13.364;2023-02-10T10:39:38;4.90;99.90
5041;DHT22;2539;52.568;13.364;2023-02-10T10:42:25;4.70;99.90
5041;DHT22;2539;52.568;13.364;2023-02-10T10:44:59;5.00;99.90
5041;DHT22;2539;52.568;13.364;2023-02-10T10:47:38;5.20;99.90
5041;DHT22;2539;52.568;13.364;2023-02-10T10:50:08;5.40;99.90
5041;DHT22;2539;52.568;13.364;2023-02-10T10:52:41;5.20;99.90
5041;DHT22;2539;52.568;13.364;2023-02-10T10:57:48;5.40;99.90
5041;DHT22;2539;52.568;13.364;2023-02-10T11:02:58;5.60;99.90
5041;DHT22;2539;52.568;13.364;2023-02-10T11:05:30;5.70;99.90
5041;DHT22;2539;52.568;13.364;2023-02-10T11:07:58;5.70;99.90
5041;DHT22;2539;52.568;13.364;2023-02-10T11:10:50;5.70;99.90
5041;DHT22;2539;52.568;13.364;2023-02-10T11:13:21;5.30;99.90
5041;DHT22;2539;52.568;13.364;2023-02-10T11:18:26;5.30;99.90
5041;DHT22;2539;52.568;13.364;2023-02-10T11:20:55;5.40;99.90
5041;DHT22;2539;52.568;13.364;2023-02-10T11:23:22;5.40;99.90
5041;DHT22;2539;52.568;13.364;2023-02-10T11:26:00;5.40;99.90
5041;DHT22;2539;52.568;13.364;2023-02-10T11:28:29;5.30;99.90
5041;DHT22;2539;52.568;13.364;2023-02-10T11:31:19;5.20;99.90
5041;DHT22;2539;52.568;13.364;2023-02-10T11:33:57;5.20;99.90
5041;DHT22;2539;52.568;13.364;2023-02-10T11:36:39;5.30;99.90
5041;DHT22;2539;52.568;13.364;2023-02-10T11:39:20;5.40;99.90
5041;DHT22;2539;52.568;13.364;2023-02-10T11:41:47;5.40;99.90
5041;DHT22;2539;52.568;13.364;2023-02-10T11:44:27;5.20;99.90
5041;DHT22;2539;52.568;13.364;2023-02-10T11:47:02;5.40;99.90
5041;DHT22;2539;52.568;13.364;2023-02-10T11:49:30;5.30;99.90
5041;DHT22;2539;52.568;13.364;2023-02-10T11:52:00;5.40;99.90
5041;DHT22;2539;52.568;13.364;2023-02-10T11:54:28;5.50;99.90
5041;DHT22;2539;52.568;13.364;2023-02-10T12:03:16;5.90;99.90
5041;DHT22;2539;52.568;13.364;2023-02-10T12:06:17;6.10;99.90
5041;DHT22;2539;52.568;13.364;2023-02-10T12:08:58;6.10;99.90
5041;DHT22;2539;52.568;13.364;2023-02-10T12:14:30;6.20;99.90
5041;DHT22;2539;52.568;13.364;2023-02-10T12:17:16;6.30;99.90
5041;DHT22;2539;52.568;13.364;2023-02-10T12:23:01;6.40;99.90
5041;DHT22;2539;52.568;13.364;2023-02-10T12:28:32;6.40;99.90
5041;DHT22;2539;52.568;13.364;2023-02-10T12:31:13;6.60;99.90
5041;DHT22;2539;52.568;13.364;2023-02-10T12:33:49;6.70;99.90
5041;DHT22;2539;52.568;13.364;2023-02-10T12:36:32;6.60;99.90
5041;DHT22;2539;52.568;13.364;2023-02-10T12:42:23;6.90;99.90
5041;DHT22;2539;52.568;13.364;2023-02-10T12:53:39;7.00;99.90
5041;DHT22;2539;52.568;13.364;2023-02-10T12:56:15;6.60;99.90
5041;DHT22;2539;52.568;13.364;2023-02-10T12:58:46;6.70;99.90
5041;DHT22;2539;52.568;13.364;2023-02-10T13:01:32;6.70;99.90
5041;DHT22;2539;52.568;13.364;2023-02-10T13:04:14;6.80;99.90
5041;DHT22;2539;52.568;13.364;2023-02-10T13:06:46;6.70;99.90
5041;DHT22;2539;52.568;13.364;2023-02-10T13:09:21;6.50;99.90
5041;DHT22;2539;52.568;13.364;2023-02-10T13:12:23;6.70;99.90
5041;DHT22;2539;52.568;13.364;2023-02-10T13:14:54;6.80;99.90
5041;DHT22;2539;52.568;13.364;2023-02-10T13:17:37;6.80;99.90
5041;DHT22;2539;52.568;13.364;2023-02-10T13:20:15;6.70;99.90
5041;DHT22;2539;52.568;13.364;2023-02-10T13:22:52;6.70;99.90
5041;DHT22;2539;52.568;13.364;2023-02-10T13:25:29;6.80;99.90
5041;DHT22;2539;52.568;13.364;2023-02-10T13:28:22;7.00;99.90
5041;DHT22;2539;52.568;13.364;2023-02-10T13:31:28;7.00;99.90
5041;DHT22;2539;52.568;13.364;2023-02-10T13:34:13;6.90;99.90
5041;DHT22;2539;52.568;13.364;2023-02-10T13:36:40;6.70;99.90
5041;DHT22;2539;52.568;13.364;2023-02-10T13:39:17;6.70;99.90
5041;DHT22;2539;52.568;13.364;2023-02-10T13:41:49;6.70;99.90
5041;DHT22;2539;52.568;13.364;2023-02-10T13:44:29;6.70;99.90
5041;DHT22;2539;52.568;13.364;2023-02-10T13:50:19;6.80;99.90
5041;DHT22;2539;52.568;13.364;2023-02-10T13:52:30;6.90;99.90
5041;DHT22;2539;52.568;13.364;2023-02-10T13:57:56;7.00;99.90
5041;DHT22;2539;52.568;13.364;2023-02-10T14:00:28;7.00;99.90
5041;DHT22;2539;52.568;13.364;2023-02-10T14:03:31;7.10;99.90
5041;DHT22;2539;52.568;13.364;2023-02-10T14:06:06;7.20;99.90
5041;DHT22;2539;52.568;13.364;2023-02-10T14:08:43;7.10;99.90
5041;DHT22;2539;52.568;13.364;2023-02-10T14:13:43;6.90;99.90
5041;DHT22;2539;52.568;13.364;2023-02-10T14:18:45;6.90;99.90
5041;DHT22;2539;52.568;13.364;2023-02-10T14:21:16;7.10;99.90
5041;DHT22;2539;52.568;13.364;2023-02-10T14:23:50;7.10;99.90
5041;DHT22;2539;52.568;13.364;2023-02-10T14:26:24;7.30;99.90
5041;DHT22;2539;52.568;13.364;2023-02-10T14:28:56;7.20;99.90
5041;DHT22;2539;52.568;13.364;2023-02-10T14:31:28;7.30;99.90
5041;DHT22;2539;52.568;13.364;2023-02-10T14:34:00;7.20;99.90
5041;DHT22;2539;52.568;13.364;2023-02-10T14:36:27;7.00;99.90
5041;DHT22;2539;52.568;13.364;2023-02-10T14:38:56;7.00;99.90
5041;DHT22;2539;52.568;13.364;2023-02-10T14:41:23;6.90;99.90
5041;DHT22;2539;52.568;13.364;2023-02-10T14:43:51;6.80;99.90
5041;DHT22;2539;52.568;13.364;2023-02-10T14:46:25;6.80;99.90
5041;DHT22;2539;52.568;13.364;2023-02-10T14:49:01;7.00;99.90
5041;DHT22;2539;52.568;13.364;2023-02-10T14:51:29;6.90;99.90
5041;DHT22;2539;52.568;13.364;2023-02-10T14:54:20;6.90;99.90
5041;DHT22;2539;52.568;13.364;2023-02-10T14:56:58;6.80;99.90
5041;DHT22;2539;52.568;13.364;2023-02-10T14:59:27;6.60;99.90
5041;DHT22;2539;52.568;13.364;2023-02-10T15:01:55;6.40;99.90
5041;DHT22;2539;52.568;13.364;2023-02-10T15:04:23;6.30;99.90
5041;DHT22;2539;52.568;13.364;2023-02-10T15:06:54;6.30;99.90
5041;DHT22;2539;52.568;13.364;2023-02-10T15:09:28;6.10;99.90
5041;DHT22;2539;52.568;13.364;2023-02-10T15:12:01;6.10;99.90
5041;DHT22;2539;52.568;13.364;2023-02-10T15:14:48;6.00;99.90
5041;DHT22;2539;52.568;13.364;2023-02-10T15:18:04;6.00;99.90
5041;DHT22;2539;52.568;13.364;2023-02-10T15:22:45;5.90;99.90
5041;DHT22;2539;52.568;13.364;2023-02-10T15:25:31;5.90;99.90
5041;DHT22;2539;52.568;13.364;2023-02-10T15:30:44;5.70;99.90
5041;DHT22;2539;52.568;13.364;2023-02-10T15:33:22;5.70;99.90
5041;DHT22;2539;52.568;13.364;2023-02-10T15:35:52;5.60;99.90
5041;DHT22;2539;52.568;13.364;2023-02-10T15:38:19;5.60;99.90
5041;DHT22;2539;52.568;13.364;2023-02-10T15:40:56;5.50;99.90
5041;DHT22;2539;52.568;13.364;2023-02-10T15:43:29;5.40;99.90
5041;DHT22;2539;52.568;13.364;2023-02-10T15:46:15;5.40;99.90
5041;DHT22;2539;52.568;13.364;2023-02-10T15:48:42;5.30;99.90
5041;DHT22;2539;52.568;13.364;2023-02-10T15:51:26;5.30;99.90
5041;DHT22;2539;52.568;13.364;2023-02-10T15:53:54;5.20;99.90
5041;DHT22;2539;52.568;13.364;2023-02-10T15:56:25;6.10;99.90
5041;DHT22;2539;52.568;13.364;2023-02-10T15:58:52;5.10;99.90
5041;DHT22;2539;52.568;13.364;2023-02-10T16:01:18;5.20;99.90
5041;DHT22;2539;52.568;13.364;2023-02-10T16:03:44;5.10;99.90
5041;DHT22;2539;52.568;13.364;2023-02-10T16:06:15;5.10;99.90
5041;DHT22;2539;52.568;13.364;2023-02-10T16:08:43;5.70;99.90
5041;DHT22;2539;52.568;13.364;2023-02-10T16:11:12;5.00;99.90
5041;DHT22;2539;52.568;13.364;2023-02-10T16:13:39;4.80;99.90
5041;DHT22;2539;52.568;13.364;2023-02-10T16:16:13;4.90;99.90
5041;DHT22;2539;52.568;13.364;2023-02-10T16:18:41;4.80;99.90
5041;DHT22;2539;52.568;13.364;2023-02-10T16:21:11;4.80;99.90
5041;DHT22;2539;52.568;13.364;2023-02-10T16:23:40;4.80;99.90
5041;DHT22;2539;52.568;13.364;2023-02-10T16:26:08;4.70;99.90
5041;DHT22;2539;52.568;13.364;2023-02-10T16:28:34;4.70;99.90
5041;DHT22;2539;52.568;13.364;2023-02-10T16:31:01;4.60;99.90
5041;DHT22;2539;52.568;13.364;2023-02-10T16:33:27;4.50;99.90
5041;DHT22;2539;52.568;13.364;2023-02-10T16:35:53;4.50;99.90
5041;DHT22;2539;52.568;13.364;2023-02-10T16:38:19;4.50;99.90
5041;DHT22;2539;52.568;13.364;2023-02-10T16:40:46;4.40;99.90
5041;DHT22;2539;52.568;13.364;2023-02-10T16:43:12;4.50;99.90
5041;DHT22;2539;52.568;13.364;2023-02-10T16:45:38;4.50;99.90
5041;DHT22;2539;52.568;13.364;2023-02-10T16:48:05;4.50;99.90
5041;DHT22;2539;52.568;13.364;2023-02-10T16:50:39;4.50;99.90
5041;DHT22;2539;52.568;13.364;2023-02-10T16:53:08;4.50;99.90
5041;DHT22;2539;52.568;13.364;2023-02-10T16:55:36;4.40;99.90
5041;DHT22;2539;52.568;13.364;2023-02-10T16:58:04;4.40;99.90
5041;DHT22;2539;52.568;13.364;2023-02-10T17:00:30;4.50;99.90
5041;DHT22;2539;52.568;13.364;2023-02-10T17:02:57;4.40;99.90
5041;DHT22;2539;52.568;13.364;2023-02-10T17:05:23;4.30;99.90
5041;DHT22;2539;52.568;13.364;2023-02-10T17:07:49;4.40;99.90
5041;DHT22;2539;52.568;13.364;2023-02-10T17:10:17;4.40;99.90
5041;DHT22;2539;52.568;13.364;2023-02-10T17:12:44;4.40;99.90
5041;DHT22;2539;52.568;13.364;2023-02-10T17:15:10;4.50;99.90
5041;DHT22;2539;52.568;13.364;2023-02-10T17:17:37;4.50;99.90
5041;DHT22;2539;52.568;13.364;2023-02-10T17:20:05;4.40;99.90
5041;DHT22;2539;52.568;13.364;2023-02-10T17:22:31;4.40;99.90
5041;DHT22;2539;52.568;13.364;2023-02-10T17:24:58;4.40;99.90
5041;DHT22;2539;52.568;13.364;2023-02-10T17:27:24;4.40;99.90
5041;DHT22;2539;52.568;13.364;2023-02-10T17:29:51;4.50;99.90
5041;DHT22;2539;52.568;13.364;2023-02-10T17:32:17;4.50;99.90
5041;DHT22;2539;52.568;13.364;2023-02-10T17:34:43;4.60;99.90
5041;DHT22;2539;52.568;13.364;2023-02-10T17:37:09;4.60;99.90
5041;DHT22;2539;52.568;13.364;2023-02-10T17:39:38;4.50;99.90
5041;DHT22;2539;52.568;13.364;2023-02-10T17:42:06;4.70;99.90
5041;DHT22;2539;52.568;13.364;2023-02-10T17:44:31;4.50;99.90
5041;DHT22;2539;52.568;13.364;2023-02-10T17:46:59;4.60;99.90
5041;DHT22;2539;52.568;13.364;2023-02-10T17:49:28;4.60;99.90
5041;DHT22;2539;52.568;13.364;2023-02-10T17:51:55;4.60;99.90
5041;DHT22;2539;52.568;13.364;2023-02-10T17:54:22;4.60;99.90